Kyokuhoumaru No.12 — JL5963 — position and weather

sailwx.info

Track history (hours):
 
Tides and Currents Weather Stations Pressure Air Temp Water Temp Dewpoint Dewpoint Depression Visibility Wind Speed Wind Dir Waves Ship Positions

Kyokuhoumaru No.12

Last reported at 2016-Sep-27 23:10 UTC. Time now 2016-Sep-27 23:59 UTC.
Position N 34°33' E 135°21'.

Length 57 m.

Type: Tanker. MMSI: 431500879.

Date/timePositionNaut miles runAvg speedWind from/ knotsBaromVisibWave heightAir tempDewpointWater temp
2016-Sep-27 23:10N 34°33' E 135°21'1 0.3
2016-Sep-27 19:33N 34°32' E 135°19'0 0.0
2016-Sep-27 14:33N 34°32' E 135°19'  
2016-Sep-21 08:33N 35°25' E 139°43'14 4.7
2016-Sep-21 05:33N 35°35' E 139°54'0 0.0
2016-Sep-21 03:33N 35°35' E 139°54'0 0.0
2016-Sep-21 02:30N 35°35' E 139°54'0 0.0
2016-Sep-20 17:30N 35°35' E 139°54'0 0.0
2016-Sep-20 14:27N 35°35' E 139°54'0 0.0
2016-Sep-20 13:33N 35°35' E 139°54'0 0.0
2016-Sep-20 10:33N 35°35' E 139°54'0 0.0
2016-Sep-20 08:33N 35°35' E 139°54'0 0.0
2016-Sep-20 07:33N 35°35' E 139°54'0 0.0
2016-Sep-20 06:33N 35°35' E 139°54'6 1.6
2016-Sep-20 02:32N 35°41' E 139°57'2 0.8
2016-Sep-19 23:26N 35°39' E 139°58'4 1.1
2016-Sep-19 19:33N 35°36' E 139°54'0 0.0
2016-Sep-19 18:33N 35°36' E 139°54'0 0.0
2016-Sep-19 16:33N 35°36' E 139°54'0 0.0
2016-Sep-19 14:30N 35°36' E 139°54'0 0.0
2016-Sep-19 13:33N 35°36' E 139°54'0 0.0
2016-Sep-19 12:30N 35°36' E 139°54'0 0.0
2016-Sep-19 11:30N 35°36' E 139°54'0 0.0
2016-Sep-19 09:33N 35°36' E 139°54'0 0.0
2016-Sep-19 07:33N 35°36' E 139°54'0 0.0
2016-Sep-19 06:30N 35°36' E 139°54'0 0.0
2016-Sep-19 03:24N 35°36' E 139°54'0 0.0
2016-Sep-19 02:27N 35°36' E 139°54'0 0.0
2016-Sep-19 00:33N 35°36' E 139°54'0 0.0
2016-Sep-18 19:33N 35°36' E 139°54'0 0.0
2016-Sep-18 15:33N 35°36' E 139°54'0 0.0
2016-Sep-18 14:33N 35°36' E 139°54'0 0.0
2016-Sep-18 10:33N 35°36' E 139°54'0 0.0
2016-Sep-18 09:24N 35°36' E 139°54'0 0.0
2016-Sep-18 02:33N 35°36' E 139°54'0 0.0
2016-Sep-18 01:33N 35°36' E 139°54'0 0.0
2016-Sep-18 00:33N 35°36' E 139°54'0 0.0
2016-Sep-17 22:30N 35°36' E 139°54'0 0.0
2016-Sep-17 21:33N 35°36' E 139°54'0 0.0
2016-Sep-17 20:33N 35°36' E 139°54'  
Track history (hours):
 
Tides and Currents Weather Stations Pressure Air Temp Water Temp Dewpoint Dewpoint Depression Visibility Wind Speed Wind Dir Waves Ship Positions

Kyokuhoumaru No.12

Last reported at 2016-Sep-27 23:10 UTC. Time now 2016-Sep-27 23:59 UTC.
Position N 34°33' E 135°21'.

Length 57 m.

Type: Tanker. MMSI: 431500879.

Date/timePositionNaut miles runAvg speedWind from/ knotsBaromVisibWave heightAir tempDewpointWater temp
2016-Sep-27 23:10N 34°33' E 135°21'1 0.3
2016-Sep-27 19:33N 34°32' E 135°19'0 0.0
2016-Sep-27 14:33N 34°32' E 135°19'  
2016-Sep-21 08:33N 35°25' E 139°43'14 4.7
2016-Sep-21 05:33N 35°35' E 139°54'0 0.0
2016-Sep-21 03:33N 35°35' E 139°54'0 0.0
2016-Sep-21 02:30N 35°35' E 139°54'0 0.0
2016-Sep-20 17:30N 35°35' E 139°54'0 0.0
2016-Sep-20 14:27N 35°35' E 139°54'0 0.0
2016-Sep-20 13:33N 35°35' E 139°54'0 0.0
2016-Sep-20 10:33N 35°35' E 139°54'0 0.0
2016-Sep-20 08:33N 35°35' E 139°54'0 0.0
2016-Sep-20 07:33N 35°35' E 139°54'0 0.0
2016-Sep-20 06:33N 35°35' E 139°54'6 1.6
2016-Sep-20 02:32N 35°41' E 139°57'2 0.8
2016-Sep-19 23:26N 35°39' E 139°58'4 1.1
2016-Sep-19 19:33N 35°36' E 139°54'0 0.0
2016-Sep-19 18:33N 35°36' E 139°54'0 0.0
2016-Sep-19 16:33N 35°36' E 139°54'0 0.0
2016-Sep-19 14:30N 35°36' E 139°54'0 0.0
2016-Sep-19 13:33N 35°36' E 139°54'0 0.0
2016-Sep-19 12:30N 35°36' E 139°54'0 0.0
2016-Sep-19 11:30N 35°36' E 139°54'0 0.0
2016-Sep-19 09:33N 35°36' E 139°54'0 0.0
2016-Sep-19 07:33N 35°36' E 139°54'0 0.0
2016-Sep-19 06:30N 35°36' E 139°54'0 0.0
2016-Sep-19 03:24N 35°36' E 139°54'0 0.0
2016-Sep-19 02:27N 35°36' E 139°54'0 0.0
2016-Sep-19 00:33N 35°36' E 139°54'0 0.0
2016-Sep-18 19:33N 35°36' E 139°54'0 0.0
2016-Sep-18 15:33N 35°36' E 139°54'0 0.0
2016-Sep-18 14:33N 35°36' E 139°54'0 0.0
2016-Sep-18 10:33N 35°36' E 139°54'0 0.0
2016-Sep-18 09:24N 35°36' E 139°54'0 0.0
2016-Sep-18 02:33N 35°36' E 139°54'0 0.0
2016-Sep-18 01:33N 35°36' E 139°54'0 0.0
2016-Sep-18 00:33N 35°36' E 139°54'0 0.0
2016-Sep-17 22:30N 35°36' E 139°54'0 0.0
2016-Sep-17 21:33N 35°36' E 139°54'0 0.0
2016-Sep-17 20:33N 35°36' E 139°54'  

Dump ship's entire track history